Terminal Aerodrome Forecast
Issued by NWS Cleveland, OH

Home | Current Version | Previous Version | Graphics & Text | Print | Product List | Glossary Off
Versions: 1 2 3 4 5 6 7 8 9 10 11 12 13 14

000
FTUS41 KCLE 301128
TAFYNG
TAF
KYNG 301128Z 3012/3112 19009KT P6SM SCT070 BKN150
      TEMPO 3012/3013 4SM BR
     FM301500 20011KT P6SM VCSH SCT040 BKN150
     FM302100 21012G18KT 6SM -TSRA BKN040CB
     FM310000 23007KT 4SM -TSRA BR OVC035CB
     FM310500 08007KT 3SM -TSRA BR OVC020CB=

USA.gov is the U.S. government's official web portal to all federal, state and local government web resources and services.